Time;durP1;ratioP1;P1;durP2;ratioP2;P2;SDS_P1;SDS_P2;PMS_P1;PMS_P2;Temp;Humidity;BMP_temperature;BMP_pressure;BME280_temperature;BME280_humidity;BME280_pressure;Samples;Min_cycle;Max_cycle;Signal;HPM_P1;HPM_P2
2021/08/25 00:01:46;;;;;;;9.57;8.03;;;15.10;99.90;;;;;;5039668;28;20168;-83
2021/08/25 00:04:12;;;;;;;10.37;8.97;;;15.20;99.90;;;;;;5039318;28;20310;-84
2021/08/25 00:06:37;;;;;;;9.60;8.60;;;15.10;99.90;;;;;;5039866;28;20175;-83
2021/08/25 00:09:04;;;;;;;10.60;8.33;;;15.10;99.90;;;;;;5039792;28;20258;-84
2021/08/25 00:11:29;;;;;;;10.10;9.03;;;15.00;99.90;;;;;;5039613;28;20516;-84
2021/08/25 00:13:55;;;;;;;10.23;8.50;;;14.90;99.90;;;;;;5039479;28;20396;-84
2021/08/25 00:16:20;;;;;;;11.17;10.07;;;14.90;99.90;;;;;;5040357;28;20157;-84
2021/08/25 00:18:46;;;;;;;9.37;7.97;;;14.90;99.90;;;;;;5022384;28;20188;-84
2021/08/25 00:21:12;;;;;;;9.50;8.53;;;15.00;99.90;;;;;;5039551;28;20165;-84
2021/08/25 00:23:37;;;;;;;10.77;8.73;;;14.90;99.90;;;;;;5040040;28;20164;-83
2021/08/25 00:26:03;;;;;;;9.43;8.53;;;14.90;99.90;;;;;;5040127;28;20168;-83
2021/08/25 00:28:28;;;;;;;10.70;9.43;;;14.90;99.90;;;;;;5039888;28;20543;-83
2021/08/25 00:30:54;;;;;;;10.67;9.57;;;14.90;99.90;;;;;;5039859;28;20200;-84
2021/08/25 00:33:19;;;;;;;8.03;7.03;;;14.80;99.90;;;;;;5039504;28;20173;-84
2021/08/25 00:35:45;;;;;;;9.30;8.40;;;14.80;99.90;;;;;;5039845;28;20167;-83
2021/08/25 00:38:10;;;;;;;9.20;8.30;;;14.80;99.90;;;;;;5039388;28;20626;-84
2021/08/25 00:40:36;;;;;;;10.87;9.77;;;14.80;99.90;;;;;;5039588;28;20180;-84
2021/08/25 00:43:11;;;;;;;9.37;7.83;;;14.80;99.90;;;;;;5039789;28;20183;-83
2021/08/25 00:45:37;;;;;;;11.60;8.13;;;14.70;99.90;;;;;;5039495;28;20251;-84
2021/08/25 00:48:04;;;;;;;9.13;8.30;;;14.70;99.90;;;;;;5038364;28;20498;-83
2021/08/25 00:50:30;;;;;;;10.23;8.20;;;14.70;99.90;;;;;;5039194;28;20525;-83
2021/08/25 00:52:55;;;;;;;9.27;8.37;;;14.70;99.90;;;;;;5038904;28;20395;-83
2021/08/25 00:55:21;;;;;;;13.60;9.00;;;14.70;99.90;;;;;;5039806;28;20260;-82
2021/08/25 00:57:46;;;;;;;15.13;9.13;;;14.70;99.90;;;;;;5040043;28;20183;-84
2021/08/25 01:00:13;;;;;;;9.20;8.20;;;14.70;99.90;;;;;;5039411;28;20157;-83
2021/08/25 01:02:51;;;;;;;10.50;8.90;;;14.70;99.90;;;;;;5038382;28;20418;-84
2021/08/25 01:05:17;;;;;;;8.20;7.50;;;14.80;99.90;;;;;;5039263;28;20410;-84
2021/08/25 01:07:44;;;;;;;8.90;8.03;;;14.70;99.90;;;;;;5039338;28;20400;-84
2021/08/25 01:10:30;;;;;;;8.97;8.07;;;14.70;99.90;;;;;;5039462;28;20189;-83
2021/08/25 01:12:58;;;;;;;8.50;7.60;;;14.60;99.90;;;;;;5039563;28;20411;-85
2021/08/25 01:15:42;;;;;;;9.30;8.40;;;14.50;99.90;;;;;;5039276;28;20395;-83
2021/08/25 01:18:15;;;;;;;9.30;8.30;;;14.40;99.90;;;;;;5021741;28;20934;-84
2021/08/25 01:20:44;;;;;;;9.17;7.40;;;14.50;99.90;;;;;;5039172;28;20388;-83
2021/08/25 01:23:12;;;;;;;10.20;8.20;;;14.40;99.90;;;;;;5039139;28;20395;-84
2021/08/25 01:25:38;;;;;;;8.60;7.80;;;14.50;99.90;;;;;;5021224;28;20404;-84
2021/08/25 01:28:07;;;;;;;7.47;6.87;;;14.40;99.90;;;;;;5039292;28;20414;-83
2021/08/25 01:30:35;;;;;;;9.40;8.43;;;14.40;99.90;;;;;;5039151;28;20192;-83
2021/08/25 01:33:01;;;;;;;9.70;7.77;;;14.40;99.90;;;;;;5038460;28;20853;-83
2021/08/25 01:35:33;;;;;;;14.07;9.83;;;14.50;99.90;;;;;;5020788;28;20892;-83
2021/08/25 01:37:59;;;;;;;8.80;8.00;;;14.40;99.90;;;;;;5020528;28;21015;-84
2021/08/25 01:40:26;;;;;;;13.40;9.23;;;14.40;99.90;;;;;;5038520;28;20454;-84
2021/08/25 01:42:51;;;;;;;9.97;8.20;;;14.40;99.90;;;;;;5039105;28;20395;-84
2021/08/25 01:45:17;;;;;;;8.73;7.63;;;14.30;99.90;;;;;;5038699;28;20426;-84
2021/08/25 01:47:42;;;;;;;8.67;7.87;;;14.40;99.90;;;;;;5038889;28;20157;-84
2021/08/25 01:50:08;;;;;;;10.23;9.13;;;14.30;99.90;;;;;;5038046;28;20192;-84
2021/08/25 01:52:34;;;;;;;9.47;8.57;;;14.30;99.90;;;;;;5038056;28;20165;-83
2021/08/25 01:54:59;;;;;;;9.03;7.93;;;14.20;99.90;;;;;;5020381;28;20778;-84
2021/08/25 01:57:25;;;;;;;10.63;9.27;;;14.20;99.90;;;;;;5038156;28;20215;-84
2021/08/25 01:59:50;;;;;;;8.80;7.90;;;14.30;99.90;;;;;;5037827;28;20195;-84
2021/08/25 02:02:16;;;;;;;10.33;8.47;;;14.30;99.90;;;;;;5037832;28;20169;-83
2021/08/25 02:04:41;;;;;;;9.20;8.40;;;14.20;99.90;;;;;;5005263;28;20165;-84
2021/08/25 02:07:07;;;;;;;9.67;8.73;;;14.20;99.90;;;;;;5039038;28;20161;-83
2021/08/25 02:09:32;;;;;;;9.90;9.00;;;14.20;99.90;;;;;;5040276;28;20204;-84
2021/08/25 02:11:58;;;;;;;12.90;8.90;;;14.10;99.90;;;;;;5046540;28;20157;-84
2021/08/25 02:14:23;;;;;;;9.33;8.07;;;14.00;99.90;;;;;;5038622;28;20153;-84
2021/08/25 02:16:49;;;;;;;8.30;7.50;;;14.00;99.90;;;;;;5020671;28;20152;-83
2021/08/25 02:19:16;;;;;;;14.30;9.93;;;13.90;99.90;;;;;;5038536;28;20161;-84
2021/08/25 02:21:41;;;;;;;8.70;7.80;;;13.80;99.90;;;;;;5038841;28;20521;-83
2021/08/25 02:24:07;;;;;;;14.37;9.53;;;13.80;99.90;;;;;;5038916;28;20388;-84
2021/08/25 02:26:32;;;;;;;9.20;8.40;;;13.80;99.90;;;;;;5038716;28;20189;-84
2021/08/25 02:28:58;;;;;;;10.70;8.53;;;13.70;99.90;;;;;;5038701;28;20193;-84
2021/08/25 02:31:23;;;;;;;10.53;8.93;;;13.80;99.90;;;;;;5038640;28;20602;-84
2021/08/25 02:33:49;;;;;;;13.10;9.63;;;13.80;99.90;;;;;;5038201;28;20606;-84
2021/08/25 02:36:17;;;;;;;9.53;8.63;;;13.80;99.90;;;;;;5038237;28;20161;-84
2021/08/25 02:38:43;;;;;;;9.73;8.50;;;13.70;99.90;;;;;;5038336;28;20856;-84
2021/08/25 02:41:11;;;;;;;9.37;8.47;;;13.70;99.90;;;;;;5039412;28;20503;-84
2021/08/25 02:43:37;;;;;;;10.53;8.60;;;13.70;99.90;;;;;;5043084;28;20227;-83
2021/08/25 02:46:04;;;;;;;10.23;9.10;;;13.70;99.90;;;;;;5040078;28;20395;-83
2021/08/25 02:48:30;;;;;;;10.30;9.30;;;13.70;99.90;;;;;;5038334;28;20165;-83
2021/08/25 02:50:55;;;;;;;21.53;9.97;;;13.70;99.90;;;;;;5039921;28;20443;-84
2021/08/25 02:53:21;;;;;;;9.93;8.40;;;13.70;99.90;;;;;;5041989;28;20174;-84
2021/08/25 02:55:47;;;;;;;11.80;9.60;;;13.60;99.90;;;;;;5041982;28;20172;-84
2021/08/25 02:58:13;;;;;;;16.17;10.47;;;13.70;99.90;;;;;;5042394;28;20161;-84
2021/08/25 03:00:39;;;;;;;10.27;9.17;;;13.70;99.90;;;;;;5042824;28;20411;-84
2021/08/25 03:03:05;;;;;;;9.50;8.50;;;13.70;99.90;;;;;;5042212;28;20468;-84
2021/08/25 03:05:31;;;;;;;13.93;10.53;;;13.70;99.90;;;;;;5042361;28;20395;-84
2021/08/25 03:07:56;;;;;;;11.30;9.43;;;13.70;99.90;;;;;;5007988;28;20224;-84
2021/08/25 03:10:22;;;;;;;10.40;8.63;;;13.70;99.90;;;;;;5042101;28;20188;-84
2021/08/25 03:12:48;;;;;;;9.63;8.60;;;13.70;99.90;;;;;;5042094;28;20165;-84
2021/08/25 03:15:14;;;;;;;10.27;9.23;;;13.70;99.90;;;;;;5050457;28;20922;-81
2021/08/25 03:17:39;;;;;;;11.60;9.87;;;13.70;99.90;;;;;;5061536;28;20157;-83
2021/08/25 03:20:07;;;;;;;15.83;10.60;;;13.70;99.90;;;;;;5061547;28;20482;-82
2021/08/25 03:22:34;;;;;;;9.87;8.87;;;13.60;99.90;;;;;;5044243;28;20168;-84
2021/08/25 03:25:00;;;;;;;9.97;9.03;;;13.60;99.90;;;;;;5061529;28;20487;-81
2021/08/25 03:27:25;;;;;;;11.47;10.20;;;13.60;99.90;;;;;;5061481;28;20413;-83
2021/08/25 03:29:51;;;;;;;12.67;9.90;;;13.50;99.90;;;;;;5061011;28;20652;-83
2021/08/25 03:32:17;;;;;;;16.70;10.57;;;13.60;99.90;;;;;;5061405;28;20157;-83
2021/08/25 03:34:42;;;;;;;14.23;9.23;;;13.60;99.90;;;;;;5061464;28;20153;-83
2021/08/25 03:37:08;;;;;;;11.50;10.13;;;13.50;99.90;;;;;;5044096;28;20228;-82
2021/08/25 03:39:33;;;;;;;17.10;9.80;;;13.50;99.90;;;;;;5060710;28;20238;-84
2021/08/25 03:41:59;;;;;;;11.63;10.53;;;13.50;99.90;;;;;;5061106;28;20183;-84
2021/08/25 03:44:25;;;;;;;11.73;10.17;;;13.50;99.90;;;;;;5058259;28;20169;-84
2021/08/25 03:46:50;;;;;;;13.90;10.10;;;13.50;99.90;;;;;;5026140;28;20398;-85
2021/08/25 03:49:16;;;;;;;11.40;10.20;;;13.50;99.90;;;;;;5039588;28;20192;-83
2021/08/25 03:51:41;;;;;;;15.27;10.33;;;13.40;99.90;;;;;;5040228;28;20232;-83
2021/08/25 03:54:07;;;;;;;12.70;10.90;;;13.40;99.90;;;;;;5040925;28;20175;-84
2021/08/25 03:56:33;;;;;;;21.40;11.77;;;13.40;99.90;;;;;;5041489;28;20165;-84
2021/08/25 03:58:58;;;;;;;11.00;9.07;;;13.50;99.90;;;;;;5040836;28;20161;-84
2021/08/25 04:01:24;;;;;;;9.77;8.50;;;13.50;99.90;;;;;;5041190;28;20157;-84
2021/08/25 04:03:49;;;;;;;11.70;8.43;;;13.50;99.90;;;;;;5044361;28;20510;-84
2021/08/25 04:06:15;;;;;;;10.77;9.67;;;13.50;99.90;;;;;;5043785;28;20184;-84
2021/08/25 04:08:40;;;;;;;10.30;9.30;;;13.40;99.90;;;;;;5042988;28;20196;-84
2021/08/25 04:11:06;;;;;;;19.83;10.10;;;13.40;99.90;;;;;;5024679;28;20157;-84
2021/08/25 04:13:31;;;;;;;11.67;10.07;;;13.40;99.90;;;;;;5041096;28;20168;-84
2021/08/25 04:15:57;;;;;;;12.80;9.80;;;13.40;99.90;;;;;;5042174;28;20161;-84
2021/08/25 04:18:22;;;;;;;10.20;9.20;;;13.30;99.90;;;;;;5060150;28;20203;-83
2021/08/25 04:20:48;;;;;;;10.53;8.93;;;13.40;99.90;;;;;;5060335;28;20167;-84
2021/08/25 04:23:13;;;;;;;8.47;7.67;;;13.30;99.90;;;;;;5060371;28;20191;-83
2021/08/25 04:25:41;;;;;;;11.73;8.97;;;13.20;99.90;;;;;;5042663;28;20189;-84
2021/08/25 04:28:08;;;;;;;7.37;6.70;;;13.10;99.90;;;;;;5056685;28;20188;-84
2021/08/25 04:30:33;;;;;;;21.23;8.90;;;13.10;99.90;;;;;;5040909;28;20455;-85
2021/08/25 04:32:58;;;;;;;8.93;8.03;;;13.20;99.90;;;;;;5023107;28;20407;-84
2021/08/25 04:35:24;;;;;;;9.63;8.73;;;13.20;99.90;;;;;;5040293;28;20173;-84
2021/08/25 04:37:50;;;;;;;9.40;8.50;;;13.10;99.90;;;;;;5033542;28;20173;-83
2021/08/25 04:40:15;;;;;;;13.33;8.40;;;13.20;99.90;;;;;;5042842;28;20180;-83
2021/08/25 04:42:40;;;;;;;8.47;7.60;;;13.20;99.90;;;;;;5060003;28;20169;-82
2021/08/25 04:45:06;;;;;;;13.50;8.90;;;13.20;99.90;;;;;;5060133;28;20171;-83
2021/08/25 04:47:32;;;;;;;12.17;8.20;;;13.10;99.90;;;;;;5059984;28;20284;-82
2021/08/25 04:49:57;;;;;;;8.43;7.73;;;13.20;99.90;;;;;;5059773;28;20200;-81
2021/08/25 04:52:23;;;;;;;10.00;8.43;;;13.10;99.90;;;;;;5042321;28;20157;-82
2021/08/25 04:54:48;;;;;;;8.17;7.37;;;13.10;99.90;;;;;;5056721;28;20203;-83
2021/08/25 04:57:14;;;;;;;16.27;8.50;;;13.20;99.90;;;;;;5042429;28;20203;-82
2021/08/25 04:59:39;;;;;;;14.70;9.53;;;13.10;99.90;;;;;;5042037;28;20209;-84
2021/08/25 05:02:06;;;;;;;9.90;7.57;;;13.20;99.90;;;;;;5059696;28;20184;-81
2021/08/25 05:04:38;;;;;;;8.70;7.87;;;13.30;99.90;;;;;;5056915;28;20177;-83
2021/08/25 05:07:04;;;;;;;12.53;8.80;;;13.30;99.90;;;;;;5021228;28;20395;-80
2021/08/25 05:09:29;;;;;;;11.27;7.77;;;13.40;99.90;;;;;;5059390;28;20504;-81
2021/08/25 05:11:56;;;;;;;17.13;8.30;;;13.40;99.90;;;;;;5059486;28;20269;-81
2021/08/25 05:14:22;;;;;;;17.97;7.77;;;13.20;99.90;;;;;;5053640;28;20228;-79
2021/08/25 05:16:48;;;;;;;8.60;7.70;;;13.20;99.90;;;;;;5058407;28;20437;-85
2021/08/25 05:19:13;;;;;;;9.03;7.50;;;13.10;99.90;;;;;;5042383;28;20403;-84
2021/08/25 05:21:39;;;;;;;9.60;8.10;;;13.10;99.90;;;;;;5038744;28;20263;-84
2021/08/25 05:24:04;;;;;;;10.63;7.90;;;13.30;99.90;;;;;;5039853;28;20172;-84
2021/08/25 05:26:30;;;;;;;9.30;8.50;;;13.30;99.90;;;;;;5039008;28;20490;-83
2021/08/25 05:28:56;;;;;;;7.90;7.20;;;13.20;99.90;;;;;;5020625;28;20234;-83
2021/08/25 05:31:23;;;;;;;7.73;6.97;;;13.20;99.90;;;;;;5038556;28;20963;-83
2021/08/25 05:33:49;;;;;;;8.63;7.37;;;13.20;99.90;;;;;;5038849;28;20609;-83
2021/08/25 05:36:14;;;;;;;11.80;7.90;;;13.10;99.90;;;;;;5039771;28;20577;-84
2021/08/25 05:38:40;;;;;;;22.03;8.13;;;13.20;99.90;;;;;;5039446;28;20519;-85
2021/08/25 05:41:05;;;;;;;18.70;7.60;;;13.10;99.90;;;;;;5036857;28;20625;-84
2021/08/25 05:43:31;;;;;;;8.43;7.00;;;13.10;99.90;;;;;;5042476;28;20569;-82
2021/08/25 05:45:56;;;;;;;7.90;7.10;;;13.00;99.90;;;;;;5037901;28;20169;-84
2021/08/25 05:48:22;;;;;;;8.50;7.70;;;13.00;99.90;;;;;;5019788;28;20632;-83
2021/08/25 05:50:48;;;;;;;8.10;7.00;;;13.10;99.90;;;;;;5037280;28;20192;-84
2021/08/25 05:53:13;;;;;;;9.73;7.70;;;13.30;99.90;;;;;;5019741;28;20157;-84
2021/08/25 05:55:39;;;;;;;7.37;6.50;;;13.40;99.90;;;;;;5038152;28;20191;-84
2021/08/25 05:58:05;;;;;;;10.90;7.37;;;13.40;99.90;;;;;;5037429;28;20727;-84
2021/08/25 06:00:30;;;;;;;7.33;6.40;;;13.50;99.90;;;;;;5032212;28;20173;-84
2021/08/25 06:02:56;;;;;;;9.60;7.30;;;13.50;99.90;;;;;;5030425;28;20551;-83
2021/08/25 06:05:21;;;;;;;8.80;7.80;;;13.60;99.90;;;;;;5030987;28;20196;-83
2021/08/25 06:07:47;;;;;;;8.47;7.33;;;13.60;99.90;;;;;;5015475;28;20204;-84
2021/08/25 06:10:13;;;;;;;7.20;6.57;;;13.60;99.90;;;;;;5033352;28;20200;-84
2021/08/25 06:12:38;;;;;;;12.00;7.50;;;13.60;99.90;;;;;;5025873;28;20182;-83
2021/08/25 06:15:04;;;;;;;7.27;6.57;;;13.60;99.90;;;;;;5029981;28;20245;-84
2021/08/25 06:17:30;;;;;;;9.90;7.07;;;13.60;99.90;;;;;;5036894;28;20191;-83
2021/08/25 06:19:55;;;;;;;9.50;8.27;;;13.60;99.90;;;;;;5038047;28;20451;-83
2021/08/25 06:22:21;;;;;;;7.07;6.37;;;13.70;99.90;;;;;;5013987;28;20717;-84
2021/08/25 06:24:46;;;;;;;7.00;6.40;;;13.80;99.90;;;;;;5031353;28;20211;-84
2021/08/25 06:27:12;;;;;;;9.70;7.50;;;13.80;99.90;;;;;;5028921;28;20192;-83
2021/08/25 06:29:37;;;;;;;7.67;6.83;;;13.80;99.90;;;;;;5033496;28;20211;-84
2021/08/25 06:32:04;;;;;;;12.30;7.23;;;14.00;99.90;;;;;;5034896;28;20176;-84
2021/08/25 06:34:29;;;;;;;7.20;6.50;;;14.00;99.90;;;;;;5014718;28;20188;-84
2021/08/25 06:36:55;;;;;;;7.53;6.27;;;14.10;99.90;;;;;;5003373;28;20436;-83
2021/08/25 06:39:21;;;;;;;7.20;5.73;;;14.10;99.90;;;;;;5040202;28;20578;-84
2021/08/25 06:41:46;;;;;;;7.17;6.47;;;14.20;99.90;;;;;;5042427;28;20242;-84
2021/08/25 06:44:12;;;;;;;6.97;6.37;;;14.30;99.90;;;;;;5035749;28;20208;-84
2021/08/25 06:46:37;;;;;;;7.03;6.37;;;14.30;99.90;;;;;;5035000;28;20283;-83
2021/08/25 06:49:03;;;;;;;10.27;6.40;;;14.30;99.90;;;;;;5032590;28;20240;-83
2021/08/25 06:51:29;;;;;;;6.53;5.97;;;14.30;99.90;;;;;;5040226;28;20196;-84
2021/08/25 06:53:54;;;;;;;6.83;6.13;;;14.30;99.90;;;;;;5040097;28;20263;-84
2021/08/25 06:56:21;;;;;;;6.20;5.60;;;14.40;99.90;;;;;;5047069;28;20424;-83
2021/08/25 06:59:15;;;;;;;6.80;5.30;;;14.50;99.90;;;;;;5037580;28;20196;-84
2021/08/25 07:01:41;;;;;;;7.10;5.80;;;14.60;99.90;;;;;;5037793;28;20454;-82
2021/08/25 07:04:06;;;;;;;8.93;6.07;;;14.60;99.90;;;;;;5029685;28;20432;-84
2021/08/25 07:06:32;;;;;;;7.30;6.60;;;14.40;99.90;;;;;;5036414;28;20212;-84
2021/08/25 07:08:57;;;;;;;6.20;5.63;;;14.70;99.90;;;;;;5031002;28;20206;-85
2021/08/25 07:11:26;;;;;;;6.67;6.07;;;14.80;99.90;;;;;;5012200;28;20195;-84
2021/08/25 07:13:52;;;;;;;6.20;5.70;;;14.80;99.90;;;;;;5026413;28;20900;-84
2021/08/25 07:16:17;;;;;;;8.87;6.63;;;14.80;99.90;;;;;;4991161;28;20193;-84
2021/08/25 07:18:43;;;;;;;11.30;6.53;;;14.80;99.90;;;;;;5033812;28;20185;-84
2021/08/25 07:21:11;;;;;;;6.53;5.93;;;14.80;99.90;;;;;;5016644;28;20187;-84
2021/08/25 07:23:36;;;;;;;9.70;6.90;;;14.90;99.90;;;;;;5025772;28;20478;-84
2021/08/25 07:26:02;;;;;;;7.10;6.47;;;14.80;99.90;;;;;;5030746;28;20958;-84
2021/08/25 07:28:27;;;;;;;6.93;6.33;;;14.50;99.90;;;;;;5018508;28;20176;-84
2021/08/25 07:30:54;;;;;;;7.80;6.23;;;14.50;99.90;;;;;;5030676;28;20302;-84
2021/08/25 07:33:20;;;;;;;7.40;6.60;;;14.80;99.90;;;;;;5035437;28;20180;-84
2021/08/25 07:35:48;;;;;;;6.60;5.20;;;14.90;99.90;;;;;;5028597;28;20912;-84
2021/08/25 07:38:14;;;;;;;6.43;5.90;;;15.20;99.90;;;;;;5036984;28;20830;-83
2021/08/25 07:40:39;;;;;;;9.40;6.63;;;15.40;99.90;;;;;;5021868;28;20443;-83
2021/08/25 07:43:05;;;;;;;8.27;6.57;;;15.60;99.90;;;;;;5028996;28;20197;-84
2021/08/25 07:45:32;;;;;;;8.60;6.90;;;15.60;99.90;;;;;;5034645;28;20181;-82
2021/08/25 07:47:58;;;;;;;6.70;5.80;;;15.80;99.90;;;;;;5039064;28;20234;-84
2021/08/25 07:50:23;;;;;;;7.43;6.73;;;15.80;99.90;;;;;;5036152;28;20581;-84
2021/08/25 07:52:49;;;;;;;7.63;6.50;;;15.80;99.90;;;;;;5035852;28;20254;-84
2021/08/25 07:55:14;;;;;;;9.27;7.33;;;15.90;99.90;;;;;;4998637;28;20203;-84
2021/08/25 07:57:41;;;;;;;8.00;6.90;;;15.90;99.90;;;;;;5032766;28;20193;-84
2021/08/25 08:00:07;;;;;;;7.27;6.60;;;16.10;99.90;;;;;;5057508;28;20187;-84
2021/08/25 08:02:34;;;;;;;9.77;6.80;;;16.30;99.90;;;;;;5055434;28;20450;-84
2021/08/25 08:05:00;;;;;;;9.23;7.20;;;16.40;99.90;;;;;;5041315;28;20188;-85
2021/08/25 08:07:25;;;;;;;7.40;6.33;;;16.30;99.90;;;;;;5037401;28;20461;-84
2021/08/25 08:09:51;;;;;;;6.37;5.37;;;16.50;99.90;;;;;;5038202;28;20213;-84
2021/08/25 08:12:16;;;;;;;6.30;5.63;;;16.30;99.90;;;;;;5031008;28;20193;-83
2021/08/25 08:14:42;;;;;;;8.47;6.37;;;16.50;99.90;;;;;;5032853;28;20223;-85
2021/08/25 08:17:07;;;;;;;8.30;5.80;;;16.60;99.90;;;;;;4994252;28;20188;-83
2021/08/25 08:19:33;;;;;;;11.63;6.13;;;16.70;99.90;;;;;;5038853;28;20556;-84
2021/08/25 08:22:01;;;;;;;14.20;8.07;;;16.80;99.90;;;;;;5027314;28;20318;-84
2021/08/25 08:24:28;;;;;;;6.50;5.87;;;16.70;99.90;;;;;;5036872;28;20435;-85
2021/08/25 08:26:54;;;;;;;4.40;3.97;;;17.00;99.90;;;;;;5043263;28;20535;-83
2021/08/25 08:29:20;;;;;;;6.67;6.07;;;17.20;99.90;;;;;;5047082;28;20463;-84
2021/08/25 08:31:47;;;;;;;8.80;5.43;;;17.20;99.90;;;;;;5024047;28;20499;-84
2021/08/25 08:34:13;;;;;;;7.10;6.00;;;17.30;99.90;;;;;;5006317;28;20510;-84
2021/08/25 08:36:39;;;;;;;7.37;5.10;;;17.40;99.90;;;;;;5034160;28;20435;-85
2021/08/25 08:39:04;;;;;;;6.33;5.77;;;17.30;99.90;;;;;;5033539;28;20263;-84
2021/08/25 08:41:30;;;;;;;5.93;5.23;;;17.40;99.90;;;;;;4991607;28;20244;-84
2021/08/25 08:43:57;;;;;;;7.13;5.30;;;17.60;99.90;;;;;;4996968;28;20201;-83
2021/08/25 08:46:23;;;;;;;9.20;6.07;;;17.60;99.90;;;;;;4978474;28;20225;-87
2021/08/25 08:48:51;;;;;;;10.27;5.50;;;17.70;99.90;;;;;;4979776;28;20462;-84
2021/08/25 08:51:20;;;;;;;5.77;5.23;;;17.80;99.90;;;;;;4967862;28;20514;-84
2021/08/25 08:53:47;;;;;;;12.30;6.17;;;17.70;99.90;;;;;;4996367;28;20512;-84
2021/08/25 08:56:13;;;;;;;6.57;5.20;;;17.90;99.90;;;;;;4995662;28;20840;-84
2021/08/25 08:58:41;;;;;;;7.00;4.50;;;18.00;99.90;;;;;;4964929;28;20425;-84
2021/08/25 09:01:07;;;;;;;6.00;4.40;;;18.10;99.90;;;;;;4986914;28;20775;-84
2021/08/25 09:03:36;;;;;;;7.80;5.27;;;18.20;99.90;;;;;;4982234;28;20478;-84
2021/08/25 09:06:02;;;;;;;11.40;6.60;;;18.30;99.90;;;;;;4985558;28;20511;-84
2021/08/25 09:08:30;;;;;;;8.87;6.10;;;18.50;99.90;;;;;;4994972;28;20475;-84
2021/08/25 09:11:05;;;;;;;8.00;5.67;;;18.70;99.90;;;;;;4990043;28;20471;-84
2021/08/25 09:13:39;;;;;;;6.30;5.70;;;18.60;99.90;;;;;;5011998;28;20434;-85
2021/08/25 09:16:06;;;;;;;8.20;5.43;;;18.80;99.90;;;;;;5010896;28;20552;-84
2021/08/25 09:18:32;;;;;;;8.67;5.63;;;19.00;99.90;;;;;;5015092;28;20436;-84
2021/08/25 09:20:58;;;;;;;8.47;5.97;;;19.20;99.90;;;;;;5030264;28;20459;-84
2021/08/25 09:23:26;;;;;;;8.37;5.40;;;19.30;99.90;;;;;;5030792;28;20202;-84
2021/08/25 09:25:56;;;;;;;7.43;5.60;;;19.50;99.90;;;;;;5031234;28;20439;-84
2021/08/25 09:28:28;;;;;;;9.00;5.47;;;19.60;99.90;;;;;;5008954;28;20431;-85
2021/08/25 09:30:58;;;;;;;7.07;4.73;;;19.90;99.90;;;;;;5029142;28;20455;-85
2021/08/25 09:33:27;;;;;;;10.63;5.77;;;19.60;99.90;;;;;;5034699;28;20497;-85
2021/08/25 09:35:56;;;;;;;7.87;5.97;;;19.10;99.90;;;;;;5029963;28;20427;-84
2021/08/25 09:38:28;;;;;;;9.10;5.37;;;19.60;99.90;;;;;;5038932;28;20513;-84
2021/08/25 09:40:57;;;;;;;10.17;6.10;;;19.00;99.90;;;;;;5032557;28;20530;-84
2021/08/25 09:43:47;;;;;;;8.70;5.00;;;19.60;99.90;;;;;;5038404;28;20529;-85
2021/08/25 09:46:24;;;;;;;6.27;5.17;;;19.90;99.90;;;;;;5032216;28;20430;-85
2021/08/25 09:48:55;;;;;;;7.37;5.07;;;19.80;99.90;;;;;;5035818;28;20430;-85
2021/08/25 09:51:25;;;;;;;6.50;4.43;;;19.90;99.90;;;;;;5038660;28;20459;-84
2021/08/25 09:54:03;;;;;;;6.13;4.70;;;20.30;99.90;;;;;;5039235;28;20427;-84
2021/08/25 09:56:32;;;;;;;6.60;5.90;;;20.80;99.90;;;;;;5039686;28;20477;-86
2021/08/25 09:58:58;;;;;;;6.23;4.50;;;20.90;99.90;;;;;;4997358;28;20492;-85
2021/08/25 10:01:24;;;;;;;12.67;5.50;;;20.70;99.90;;;;;;5006181;28;20507;-85
2021/08/25 10:03:50;;;;;;;7.40;5.00;;;20.70;99.90;;;;;;5032597;28;20423;-84
2021/08/25 10:06:18;;;;;;;7.73;5.80;;;20.80;99.90;;;;;;5033726;28;20422;-84
2021/08/25 10:08:45;;;;;;;5.87;5.27;;;20.80;99.90;;;;;;5036189;28;20434;-84
2021/08/25 10:11:13;;;;;;;6.53;4.60;;;21.30;99.90;;;;;;5037135;28;20454;-84
2021/08/25 10:13:40;;;;;;;7.27;5.23;;;21.00;99.90;;;;;;5048994;28;20507;-84
2021/08/25 10:16:11;;;;;;;8.60;6.10;;;21.70;99.90;;;;;;5051484;28;20384;-84
2021/08/25 10:18:38;;;;;;;8.47;4.77;;;21.80;99.90;;;;;;5026569;28;20955;-84
2021/08/25 10:21:24;;;;;;;7.13;5.03;;;22.00;99.90;;;;;;5020694;28;20443;-84
2021/08/25 10:24:02;;;;;;;7.93;5.03;;;20.90;99.90;;;;;;5013281;28;20537;-83
2021/08/25 10:26:28;;;;;;;7.27;5.00;;;21.30;99.90;;;;;;5021755;28;20503;-83
2021/08/25 10:29:03;;;;;;;10.87;5.50;;;21.30;99.90;;;;;;5023131;28;20784;-84
2021/08/25 10:32:01;;;;;;;7.30;5.53;;;21.40;99.90;;;;;;5009254;28;20450;-84
2021/08/25 10:34:33;;;;;;;7.73;5.00;;;21.60;99.90;;;;;;5022435;28;20427;-85
2021/08/25 10:37:25;;;;;;;8.47;6.67;;;22.60;99.90;;;;;;5029682;28;20740;-84
2021/08/25 10:39:57;;;;;;;6.07;5.07;;;23.20;99.90;;;;;;5049769;28;20493;-84
2021/08/25 10:42:51;;;;;;;8.80;6.27;;;22.20;99.90;;;;;;5050647;28;20915;-85
2021/08/25 10:45:37;;;;;;;6.47;5.73;;;21.60;99.90;;;;;;5055644;28;20495;-84
2021/08/25 10:48:03;;;;;;;8.23;6.00;;;22.90;99.90;;;;;;5053132;28;20587;-84
2021/08/25 10:50:50;;;;;;;7.13;5.27;;;23.30;99.90;;;;;;5049536;28;20496;-84
2021/08/25 10:53:36;;;;;;;7.23;5.43;;;23.70;99.90;;;;;;5054813;28;20164;-85
2021/08/25 10:56:34;;;;;;;6.77;6.13;;;24.10;99.90;;;;;;5054870;28;20461;-85
2021/08/25 10:59:03;;;;;;;7.77;5.60;;;23.20;99.90;;;;;;5056584;28;20497;-83
2021/08/25 11:01:37;;;;;;;8.73;5.47;;;24.30;99.90;;;;;;5049696;28;21042;-84
2021/08/25 11:04:07;;;;;;;8.57;5.80;;;24.40;99.90;;;;;;5056494;28;20429;-84
2021/08/25 11:06:52;;;;;;;7.20;5.83;;;24.50;99.90;;;;;;5060107;28;20398;-84
2021/08/25 11:09:29;;;;;;;10.30;6.33;;;24.20;99.90;;;;;;5066296;28;20442;-83
2021/08/25 11:11:59;;;;;;;8.40;5.90;;;23.90;99.90;;;;;;5065255;28;20418;-84
2021/08/25 11:14:28;;;;;;;8.10;5.70;;;23.10;99.90;;;;;;5065951;28;20444;-84
2021/08/25 11:16:56;;;;;;;7.57;5.53;;;22.90;99.90;;;;;;5053594;28;20793;-84
2021/08/25 11:19:25;;;;;;;7.13;5.13;;;23.40;99.90;;;;;;5049818;28;20471;-84
2021/08/25 11:21:51;;;;;;;9.60;5.80;;;24.00;99.90;;;;;;5048881;28;20465;-85
2021/08/25 11:24:19;;;;;;;7.03;5.93;;;24.30;99.90;;;;;;5053442;28;20743;-84
2021/08/25 11:26:44;;;;;;;7.90;5.97;;;24.90;99.90;;;;;;5052658;28;20975;-85
2021/08/25 11:29:23;;;;;;;7.57;4.97;;;25.50;99.90;;;;;;5042703;28;20492;-84
2021/08/25 11:31:50;;;;;;;6.80;5.50;;;25.80;99.90;;;;;;5056357;28;20164;-85
2021/08/25 11:34:18;;;;;;;7.63;5.60;;;24.70;99.90;;;;;;5046497;28;20428;-84
2021/08/25 11:36:57;;;;;;;11.20;6.23;;;23.00;99.90;;;;;;5053514;28;20731;-84
2021/08/25 11:39:22;;;;;;;6.00;4.90;;;23.70;99.90;;;;;;5046699;28;20457;-85
2021/08/25 11:41:50;;;;;;;7.50;6.17;;;23.70;99.90;;;;;;5036921;28;20425;-84
2021/08/25 11:44:36;;;;;;;6.60;5.77;;;23.30;99.90;;;;;;5028310;28;20567;-85
2021/08/25 11:47:13;;;;;;;6.13;5.30;;;24.60;99.90;;;;;;5027259;28;20453;-84
2021/08/25 11:49:39;;;;;;;6.70;6.00;;;26.30;99.90;;;;;;5011207;28;20817;-84
2021/08/25 11:52:06;;;;;;;7.20;6.50;;;26.60;99.90;;;;;;5027748;28;20428;-83
2021/08/25 11:54:33;;;;;;;6.85;5.63;;;26.40;98.20;;;;;;5003445;28;20497;-84
2021/08/25 11:56:58;;;;;;;6.68;5.63;;;27.70;96.60;;;;;;5006029;28;20157;-84
2021/08/25 11:59:24;;;;;;;6.03;5.18;;;28.70;93.70;;;;;;5035534;28;20334;-85
2021/08/25 12:01:49;;;;;;;6.82;5.95;;;28.40;91.70;;;;;;5025926;28;20183;-84
2021/08/25 12:04:27;;;;;;;6.35;5.47;;;28.50;91.40;;;;;;5004580;28;20165;-84
2021/08/25 12:06:54;;;;;;;7.40;5.45;;;28.40;90.30;;;;;;5016860;28;20252;-83
2021/08/25 12:09:35;;;;;;;9.93;7.25;;;28.10;90.70;;;;;;5031068;28;20235;-84
2021/08/25 12:12:01;;;;;;;7.03;5.60;;;27.30;91.20;;;;;;5043923;28;20585;-84
2021/08/25 12:14:27;;;;;;;7.90;5.50;;;27.10;90.70;;;;;;5023747;28;20168;-83
2021/08/25 12:17:07;;;;;;;5.40;4.90;;;26.30;92.00;;;;;;5031701;28;20189;-84
2021/08/25 12:19:34;;;;;;;7.30;5.60;;;26.30;92.40;;;;;;5035223;28;20179;-84
2021/08/25 12:22:20;;;;;;;8.00;5.63;;;25.80;93.20;;;;;;5031497;28;20417;-84
2021/08/25 12:24:45;;;;;;;10.73;7.20;;;25.80;92.30;;;;;;5030309;28;20494;-84
2021/08/25 12:27:12;;;;;;;8.43;6.00;;;25.50;93.10;;;;;;5030903;28;20468;-83
2021/08/25 12:29:43;;;;;;;7.27;5.37;;;25.90;93.80;;;;;;5021909;28;20496;-84
2021/08/25 12:32:09;;;;;;;5.30;4.60;;;27.00;93.00;;;;;;5015514;28;20435;-87
2021/08/25 12:34:36;;;;;;;5.30;4.80;;;27.30;90.50;;;;;;5019662;28;20437;-84
2021/08/25 12:37:01;;;;;;;6.87;4.73;;;27.90;92.50;;;;;;5021821;28;20169;-85
2021/08/25 12:39:29;;;;;;;9.83;5.47;;;27.80;90.10;;;;;;5020900;28;20951;-83
2021/08/25 12:41:56;;;;;;;6.53;5.43;;;27.80;88.70;;;;;;5012390;28;20191;-85
2021/08/25 12:44:22;;;;;;;12.10;5.80;;;27.80;87.60;;;;;;5027763;28;20232;-85
2021/08/25 12:46:54;;;;;;;6.75;5.40;;;28.10;86.10;;;;;;5042219;28;20882;-85